sensor_id;sensor_type;location;lat;lon;timestamp;P1;durP1;ratioP1;P2;durP2;ratioP2
826;SDS011;395;48.132;11.608;2023-01-20T00:02:00;9.13;;;6.50;;
826;SDS011;395;48.132;11.608;2023-01-20T00:04:26;9.10;;;7.37;;
826;SDS011;395;48.132;11.608;2023-01-20T00:06:52;8.67;;;6.60;;
826;SDS011;395;48.132;11.608;2023-01-20T00:09:18;9.23;;;7.45;;
826;SDS011;395;48.132;11.608;2023-01-20T00:11:44;8.67;;;7.00;;
826;SDS011;395;48.132;11.608;2023-01-20T00:14:10;9.43;;;7.30;;
826;SDS011;395;48.132;11.608;2023-01-20T00:16:35;14.70;;;7.77;;
826;SDS011;395;48.132;11.608;2023-01-20T00:19:01;9.17;;;7.13;;
826;SDS011;395;48.132;11.608;2023-01-20T00:21:28;10.32;;;7.03;;
826;SDS011;395;48.132;11.608;2023-01-20T00:24:08;11.27;;;7.05;;
826;SDS011;395;48.132;11.608;2023-01-20T00:26:34;8.53;;;6.87;;
826;SDS011;395;48.132;11.608;2023-01-20T00:29:00;14.00;;;6.73;;
826;SDS011;395;48.132;11.608;2023-01-20T00:31:27;10.03;;;6.50;;
826;SDS011;395;48.132;11.608;2023-01-20T00:33:55;7.35;;;6.20;;
826;SDS011;395;48.132;11.608;2023-01-20T00:36:22;8.85;;;6.15;;
826;SDS011;395;48.132;11.608;2023-01-20T00:38:49;9.80;;;6.00;;
826;SDS011;395;48.132;11.608;2023-01-20T00:41:15;7.90;;;5.80;;
826;SDS011;395;48.132;11.608;2023-01-20T00:43:41;10.25;;;6.10;;
826;SDS011;395;48.132;11.608;2023-01-20T00:46:07;9.47;;;6.90;;
826;SDS011;395;48.132;11.608;2023-01-20T00:48:34;9.80;;;5.68;;
826;SDS011;395;48.132;11.608;2023-01-20T00:51:00;10.70;;;6.70;;
826;SDS011;395;48.132;11.608;2023-01-20T00:53:27;7.75;;;5.90;;
826;SDS011;395;48.132;11.608;2023-01-20T00:55:53;10.65;;;5.80;;
826;SDS011;395;48.132;11.608;2023-01-20T00:58:18;9.67;;;5.90;;
826;SDS011;395;48.132;11.608;2023-01-20T01:00:48;8.07;;;5.90;;
826;SDS011;395;48.132;11.608;2023-01-20T01:03:15;8.70;;;5.60;;
826;SDS011;395;48.132;11.608;2023-01-20T01:05:42;8.38;;;5.88;;
826;SDS011;395;48.132;11.608;2023-01-20T01:08:08;8.25;;;6.10;;
826;SDS011;395;48.132;11.608;2023-01-20T01:10:34;7.90;;;5.43;;
826;SDS011;395;48.132;11.608;2023-01-20T01:13:00;8.20;;;5.63;;
826;SDS011;395;48.132;11.608;2023-01-20T01:15:27;6.70;;;5.32;;
826;SDS011;395;48.132;11.608;2023-01-20T01:17:53;7.57;;;5.50;;
826;SDS011;395;48.132;11.608;2023-01-20T01:20:20;6.40;;;5.80;;
826;SDS011;395;48.132;11.608;2023-01-20T01:22:46;6.93;;;5.70;;
826;SDS011;395;48.132;11.608;2023-01-20T01:25:12;8.50;;;5.60;;
826;SDS011;395;48.132;11.608;2023-01-20T01:27:37;8.23;;;6.23;;
826;SDS011;395;48.132;11.608;2023-01-20T01:30:03;11.50;;;6.10;;
826;SDS011;395;48.132;11.608;2023-01-20T01:32:29;6.43;;;5.63;;
826;SDS011;395;48.132;11.608;2023-01-20T01:34:55;7.00;;;5.10;;
826;SDS011;395;48.132;11.608;2023-01-20T01:37:20;7.17;;;6.17;;
826;SDS011;395;48.132;11.608;2023-01-20T01:39:46;6.90;;;5.50;;
826;SDS011;395;48.132;11.608;2023-01-20T01:42:12;7.53;;;5.70;;
826;SDS011;395;48.132;11.608;2023-01-20T01:47:40;6.18;;;5.20;;
826;SDS011;395;48.132;11.608;2023-01-20T01:50:25;8.77;;;6.18;;
826;SDS011;395;48.132;11.608;2023-01-20T01:53:09;10.75;;;6.00;;
826;SDS011;395;48.132;11.608;2023-01-20T01:55:37;8.45;;;5.88;;
826;SDS011;395;48.132;11.608;2023-01-20T01:58:05;9.80;;;7.00;;
826;SDS011;395;48.132;11.608;2023-01-20T02:00:35;6.93;;;5.57;;
826;SDS011;395;48.132;11.608;2023-01-20T02:03:02;7.88;;;5.75;;
826;SDS011;395;48.132;11.608;2023-01-20T02:05:29;8.93;;;7.40;;
826;SDS011;395;48.132;11.608;2023-01-20T02:07:57;11.25;;;6.75;;
826;SDS011;395;48.132;11.608;2023-01-20T02:10:23;8.95;;;5.78;;
826;SDS011;395;48.132;11.608;2023-01-20T02:12:49;10.00;;;6.43;;
826;SDS011;395;48.132;11.608;2023-01-20T02:15:16;6.33;;;5.73;;
826;SDS011;395;48.132;11.608;2023-01-20T02:25:53;9.55;;;5.93;;
826;SDS011;395;48.132;11.608;2023-01-20T02:33:22;9.27;;;5.93;;
826;SDS011;395;48.132;11.608;2023-01-20T02:36:05;10.27;;;6.55;;
826;SDS011;395;48.132;11.608;2023-01-20T02:38:42;7.00;;;6.18;;
826;SDS011;395;48.132;11.608;2023-01-20T02:43:44;9.23;;;6.47;;
826;SDS011;395;48.132;11.608;2023-01-20T02:49:00;8.80;;;6.95;;
826;SDS011;395;48.132;11.608;2023-01-20T02:51:39;11.25;;;7.93;;
826;SDS011;395;48.132;11.608;2023-01-20T02:54:22;8.57;;;6.80;;
826;SDS011;395;48.132;11.608;2023-01-20T02:56:50;9.38;;;7.18;;
826;SDS011;395;48.132;11.608;2023-01-20T02:59:20;10.23;;;7.30;;
826;SDS011;395;48.132;11.608;2023-01-20T03:01:55;10.43;;;7.40;;
826;SDS011;395;48.132;11.608;2023-01-20T03:04:27;10.00;;;7.63;;
826;SDS011;395;48.132;11.608;2023-01-20T03:06:55;10.88;;;7.43;;
826;SDS011;395;48.132;11.608;2023-01-20T03:09:29;9.20;;;6.85;;
826;SDS011;395;48.132;11.608;2023-01-20T03:12:02;8.60;;;7.28;;
826;SDS011;395;48.132;11.608;2023-01-20T03:14:33;9.00;;;6.55;;
826;SDS011;395;48.132;11.608;2023-01-20T03:17:00;8.30;;;7.00;;
826;SDS011;395;48.132;11.608;2023-01-20T03:19:26;8.95;;;6.90;;
826;SDS011;395;48.132;11.608;2023-01-20T03:21:52;8.73;;;5.97;;
826;SDS011;395;48.132;11.608;2023-01-20T03:24:17;6.77;;;5.63;;
826;SDS011;395;48.132;11.608;2023-01-20T03:26:44;9.10;;;6.40;;
826;SDS011;395;48.132;11.608;2023-01-20T03:29:10;6.30;;;5.30;;
826;SDS011;395;48.132;11.608;2023-01-20T03:34:05;6.80;;;5.43;;
826;SDS011;395;48.132;11.608;2023-01-20T03:36:37;7.55;;;5.53;;
826;SDS011;395;48.132;11.608;2023-01-20T03:39:04;7.75;;;5.97;;
826;SDS011;395;48.132;11.608;2023-01-20T03:50:06;7.38;;;5.72;;
826;SDS011;395;48.132;11.608;2023-01-20T03:55:25;7.43;;;5.32;;
826;SDS011;395;48.132;11.608;2023-01-20T03:58:03;8.57;;;6.28;;
826;SDS011;395;48.132;11.608;2023-01-20T04:00:33;9.00;;;5.53;;
826;SDS011;395;48.132;11.608;2023-01-20T04:03:07;8.75;;;5.90;;
826;SDS011;395;48.132;11.608;2023-01-20T04:05:39;9.25;;;6.05;;
826;SDS011;395;48.132;11.608;2023-01-20T04:08:07;6.47;;;5.35;;
826;SDS011;395;48.132;11.608;2023-01-20T04:10:34;8.18;;;6.03;;
826;SDS011;395;48.132;11.608;2023-01-20T04:13:03;7.82;;;5.30;;
826;SDS011;395;48.132;11.608;2023-01-20T04:15:31;8.63;;;6.10;;
826;SDS011;395;48.132;11.608;2023-01-20T04:18:11;6.93;;;5.35;;
826;SDS011;395;48.132;11.608;2023-01-20T04:20:42;5.40;;;4.90;;
826;SDS011;395;48.132;11.608;2023-01-20T04:23:19;6.13;;;5.40;;
826;SDS011;395;48.132;11.608;2023-01-20T04:25:56;6.13;;;5.00;;
826;SDS011;395;48.132;11.608;2023-01-20T04:28:22;5.37;;;4.83;;
826;SDS011;395;48.132;11.608;2023-01-20T04:30:47;7.27;;;5.73;;
826;SDS011;395;48.132;11.608;2023-01-20T04:33:13;6.50;;;5.10;;
826;SDS011;395;48.132;11.608;2023-01-20T04:35:39;6.10;;;5.00;;
826;SDS011;395;48.132;11.608;2023-01-20T04:38:04;9.20;;;5.43;;
826;SDS011;395;48.132;11.608;2023-01-20T04:40:30;7.27;;;4.53;;
826;SDS011;395;48.132;11.608;2023-01-20T04:42:56;7.40;;;5.77;;
826;SDS011;395;48.132;11.608;2023-01-20T04:45:22;6.83;;;5.90;;
826;SDS011;395;48.132;11.608;2023-01-20T04:47:47;6.50;;;5.40;;
826;SDS011;395;48.132;11.608;2023-01-20T04:50:13;7.50;;;6.07;;
826;SDS011;395;48.132;11.608;2023-01-20T04:52:39;7.70;;;6.27;;
826;SDS011;395;48.132;11.608;2023-01-20T04:55:05;8.07;;;6.20;;
826;SDS011;395;48.132;11.608;2023-01-20T04:57:31;8.07;;;5.95;;
826;SDS011;395;48.132;11.608;2023-01-20T04:59:56;7.77;;;6.10;;
826;SDS011;395;48.132;11.608;2023-01-20T05:02:22;11.60;;;6.97;;
826;SDS011;395;48.132;11.608;2023-01-20T05:04:48;7.17;;;6.07;;
826;SDS011;395;48.132;11.608;2023-01-20T05:07:13;7.33;;;6.60;;
826;SDS011;395;48.132;11.608;2023-01-20T05:09:39;7.60;;;6.80;;
826;SDS011;395;48.132;11.608;2023-01-20T05:12:05;9.70;;;7.73;;
826;SDS011;395;48.132;11.608;2023-01-20T05:14:30;9.60;;;8.03;;
826;SDS011;395;48.132;11.608;2023-01-20T05:16:56;7.77;;;6.73;;
826;SDS011;395;48.132;11.608;2023-01-20T05:19:22;10.13;;;7.80;;
826;SDS011;395;48.132;11.608;2023-01-20T05:21:47;10.40;;;7.63;;
826;SDS011;395;48.132;11.608;2023-01-20T05:24:13;11.30;;;8.90;;
826;SDS011;395;48.132;11.608;2023-01-20T05:26:39;10.60;;;8.03;;
826;SDS011;395;48.132;11.608;2023-01-20T05:29:04;10.60;;;8.33;;
826;SDS011;395;48.132;11.608;2023-01-20T05:31:30;11.00;;;8.93;;
826;SDS011;395;48.132;11.608;2023-01-20T05:33:56;10.53;;;8.40;;
826;SDS011;395;48.132;11.608;2023-01-20T05:36:21;12.40;;;8.90;;
826;SDS011;395;48.132;11.608;2023-01-20T05:38:47;10.80;;;8.23;;
826;SDS011;395;48.132;11.608;2023-01-20T05:41:13;11.73;;;9.80;;
826;SDS011;395;48.132;11.608;2023-01-20T05:43:38;16.13;;;9.80;;
826;SDS011;395;48.132;11.608;2023-01-20T05:46:04;11.57;;;8.90;;
826;SDS011;395;48.132;11.608;2023-01-20T05:48:30;12.02;;;9.35;;
826;SDS011;395;48.132;11.608;2023-01-20T05:50:56;12.93;;;9.37;;
826;SDS011;395;48.132;11.608;2023-01-20T05:53:22;11.50;;;9.57;;
826;SDS011;395;48.132;11.608;2023-01-20T05:55:48;11.33;;;8.60;;
826;SDS011;395;48.132;11.608;2023-01-20T05:58:13;21.97;;;9.30;;
826;SDS011;395;48.132;11.608;2023-01-20T06:00:39;12.10;;;9.13;;
826;SDS011;395;48.132;11.608;2023-01-20T06:03:05;9.10;;;8.17;;
826;SDS011;395;48.132;11.608;2023-01-20T06:05:31;10.50;;;8.23;;
826;SDS011;395;48.132;11.608;2023-01-20T06:07:56;13.65;;;8.43;;
826;SDS011;395;48.132;11.608;2023-01-20T06:10:23;11.50;;;7.93;;
826;SDS011;395;48.132;11.608;2023-01-20T06:12:51;11.20;;;8.05;;
826;SDS011;395;48.132;11.608;2023-01-20T06:15:21;9.90;;;8.32;;
826;SDS011;395;48.132;11.608;2023-01-20T06:17:50;9.88;;;7.68;;
826;SDS011;395;48.132;11.608;2023-01-20T06:20:17;9.00;;;7.00;;
826;SDS011;395;48.132;11.608;2023-01-20T06:22:43;8.95;;;6.32;;
826;SDS011;395;48.132;11.608;2023-01-20T06:25:08;9.93;;;6.97;;
826;SDS011;395;48.132;11.608;2023-01-20T06:27:34;8.07;;;6.53;;
826;SDS011;395;48.132;11.608;2023-01-20T06:30:01;9.05;;;5.90;;
826;SDS011;395;48.132;11.608;2023-01-20T06:32:28;8.45;;;5.95;;
826;SDS011;395;48.132;11.608;2023-01-20T06:34:54;9.43;;;6.30;;
826;SDS011;395;48.132;11.608;2023-01-20T06:37:19;10.93;;;6.37;;
826;SDS011;395;48.132;11.608;2023-01-20T06:39:45;11.23;;;6.27;;
826;SDS011;395;48.132;11.608;2023-01-20T06:42:11;7.67;;;6.70;;
826;SDS011;395;48.132;11.608;2023-01-20T06:44:37;8.55;;;6.07;;
826;SDS011;395;48.132;11.608;2023-01-20T06:47:03;8.67;;;6.57;;
826;SDS011;395;48.132;11.608;2023-01-20T06:49:28;9.73;;;7.20;;
826;SDS011;395;48.132;11.608;2023-01-20T06:51:54;9.07;;;6.90;;
826;SDS011;395;48.132;11.608;2023-01-20T06:54:20;9.57;;;6.60;;
826;SDS011;395;48.132;11.608;2023-01-20T06:56:46;8.23;;;6.73;;
826;SDS011;395;48.132;11.608;2023-01-20T06:59:11;8.03;;;6.60;;
826;SDS011;395;48.132;11.608;2023-01-20T07:01:38;10.30;;;7.17;;
826;SDS011;395;48.132;11.608;2023-01-20T07:04:04;8.27;;;6.30;;
826;SDS011;395;48.132;11.608;2023-01-20T07:06:31;10.57;;;6.88;;
826;SDS011;395;48.132;11.608;2023-01-20T07:09:05;8.73;;;7.50;;
826;SDS011;395;48.132;11.608;2023-01-20T07:11:32;8.98;;;6.90;;
826;SDS011;395;48.132;11.608;2023-01-20T07:13:59;13.02;;;8.32;;
826;SDS011;395;48.132;11.608;2023-01-20T07:16:26;9.18;;;7.32;;
826;SDS011;395;48.132;11.608;2023-01-20T07:18:51;9.70;;;8.00;;
826;SDS011;395;48.132;11.608;2023-01-20T07:21:17;10.57;;;8.87;;
826;SDS011;395;48.132;11.608;2023-01-20T07:23:44;9.27;;;7.45;;
826;SDS011;395;48.132;11.608;2023-01-20T07:26:13;9.10;;;7.45;;
826;SDS011;395;48.132;11.608;2023-01-20T07:28:43;10.85;;;8.40;;
826;SDS011;395;48.132;11.608;2023-01-20T07:31:10;11.77;;;8.30;;
826;SDS011;395;48.132;11.608;2023-01-20T07:33:37;9.93;;;7.10;;
826;SDS011;395;48.132;11.608;2023-01-20T07:36:03;9.95;;;7.68;;
826;SDS011;395;48.132;11.608;2023-01-20T07:38:29;12.02;;;8.68;;
826;SDS011;395;48.132;11.608;2023-01-20T07:40:56;9.20;;;8.15;;
826;SDS011;395;48.132;11.608;2023-01-20T07:43:25;8.18;;;7.20;;
826;SDS011;395;48.132;11.608;2023-01-20T07:45:58;8.70;;;7.20;;
826;SDS011;395;48.132;11.608;2023-01-20T07:48:27;10.35;;;8.48;;
826;SDS011;395;48.132;11.608;2023-01-20T07:50:58;10.18;;;7.95;;
826;SDS011;395;48.132;11.608;2023-01-20T07:53:34;11.50;;;8.85;;
826;SDS011;395;48.132;11.608;2023-01-20T07:56:05;9.80;;;8.13;;
826;SDS011;395;48.132;11.608;2023-01-20T07:58:50;9.93;;;8.10;;
826;SDS011;395;48.132;11.608;2023-01-20T08:01:21;10.80;;;8.88;;
826;SDS011;395;48.132;11.608;2023-01-20T08:03:52;12.60;;;8.63;;
826;SDS011;395;48.132;11.608;2023-01-20T08:06:19;12.20;;;9.00;;
826;SDS011;395;48.132;11.608;2023-01-20T08:08:46;11.15;;;8.20;;
826;SDS011;395;48.132;11.608;2023-01-20T08:11:13;10.38;;;8.15;;
826;SDS011;395;48.132;11.608;2023-01-20T08:13:40;9.77;;;7.60;;
826;SDS011;395;48.132;11.608;2023-01-20T08:16:07;13.15;;;8.05;;
826;SDS011;395;48.132;11.608;2023-01-20T08:18:35;10.60;;;8.30;;
826;SDS011;395;48.132;11.608;2023-01-20T08:21:01;10.73;;;7.95;;
826;SDS011;395;48.132;11.608;2023-01-20T08:23:32;10.45;;;8.20;;
826;SDS011;395;48.132;11.608;2023-01-20T08:25:59;12.18;;;8.20;;
826;SDS011;395;48.132;11.608;2023-01-20T08:28:27;14.02;;;9.25;;
826;SDS011;395;48.132;11.608;2023-01-20T08:30:54;12.48;;;8.15;;
826;SDS011;395;48.132;11.608;2023-01-20T08:33:26;10.85;;;8.10;;
826;SDS011;395;48.132;11.608;2023-01-20T08:35:51;10.63;;;8.30;;
826;SDS011;395;48.132;11.608;2023-01-20T08:38:19;12.52;;;8.35;;
826;SDS011;395;48.132;11.608;2023-01-20T08:40:45;11.47;;;8.80;;
826;SDS011;395;48.132;11.608;2023-01-20T08:43:11;10.30;;;7.77;;
826;SDS011;395;48.132;11.608;2023-01-20T08:45:39;11.50;;;8.82;;
826;SDS011;395;48.132;11.608;2023-01-20T08:48:08;12.05;;;8.65;;
826;SDS011;395;48.132;11.608;2023-01-20T08:50:34;11.80;;;8.25;;
826;SDS011;395;48.132;11.608;2023-01-20T08:53:00;11.63;;;9.10;;
826;SDS011;395;48.132;11.608;2023-01-20T08:55:26;10.83;;;8.57;;
826;SDS011;395;48.132;11.608;2023-01-20T08:57:51;14.00;;;8.63;;
826;SDS011;395;48.132;11.608;2023-01-20T09:00:17;12.80;;;9.90;;
826;SDS011;395;48.132;11.608;2023-01-20T09:02:43;10.15;;;8.05;;
826;SDS011;395;48.132;11.608;2023-01-20T09:05:09;11.30;;;8.70;;
826;SDS011;395;48.132;11.608;2023-01-20T09:07:35;12.55;;;9.07;;
826;SDS011;395;48.132;11.608;2023-01-20T09:10:02;11.63;;;9.10;;
826;SDS011;395;48.132;11.608;2023-01-20T09:12:28;10.45;;;8.32;;
826;SDS011;395;48.132;11.608;2023-01-20T09:14:54;12.73;;;9.07;;
826;SDS011;395;48.132;11.608;2023-01-20T09:17:19;12.37;;;9.57;;
826;SDS011;395;48.132;11.608;2023-01-20T09:19:45;11.43;;;8.37;;
826;SDS011;395;48.132;11.608;2023-01-20T09:22:11;10.23;;;8.70;;
826;SDS011;395;48.132;11.608;2023-01-20T09:24:36;11.70;;;9.07;;
826;SDS011;395;48.132;11.608;2023-01-20T09:27:02;10.57;;;8.83;;
826;SDS011;395;48.132;11.608;2023-01-20T09:29:27;11.23;;;9.00;;
826;SDS011;395;48.132;11.608;2023-01-20T09:31:54;15.50;;;10.23;;
826;SDS011;395;48.132;11.608;2023-01-20T09:34:24;10.73;;;8.07;;
826;SDS011;395;48.132;11.608;2023-01-20T09:36:58;10.45;;;8.70;;
826;SDS011;395;48.132;11.608;2023-01-20T09:39:45;12.02;;;7.38;;
826;SDS011;395;48.132;11.608;2023-01-20T09:45:55;8.27;;;6.57;;
826;SDS011;395;48.132;11.608;2023-01-20T09:48:36;8.20;;;6.25;;
826;SDS011;395;48.132;11.608;2023-01-20T09:51:52;10.15;;;7.05;;
826;SDS011;395;48.132;11.608;2023-01-20T09:54:44;10.07;;;7.22;;
826;SDS011;395;48.132;11.608;2023-01-20T09:57:14;9.68;;;7.38;;
826;SDS011;395;48.132;11.608;2023-01-20T09:59:47;8.23;;;5.70;;
826;SDS011;395;48.132;11.608;2023-01-20T10:02:19;9.13;;;7.65;;
826;SDS011;395;48.132;11.608;2023-01-20T10:04:51;7.97;;;5.90;;
826;SDS011;395;48.132;11.608;2023-01-20T10:07:31;8.88;;;6.82;;
826;SDS011;395;48.132;11.608;2023-01-20T10:10:16;9.23;;;6.63;;
826;SDS011;395;48.132;11.608;2023-01-20T10:12:52;7.95;;;6.53;;
826;SDS011;395;48.132;11.608;2023-01-20T10:15:37;7.63;;;6.65;;
826;SDS011;395;48.132;11.608;2023-01-20T10:18:14;7.70;;;6.05;;
826;SDS011;395;48.132;11.608;2023-01-20T10:27:16;6.22;;;4.80;;
826;SDS011;395;48.132;11.608;2023-01-20T10:29:46;7.00;;;5.60;;
826;SDS011;395;48.132;11.608;2023-01-20T10:32:23;6.70;;;4.90;;
826;SDS011;395;48.132;11.608;2023-01-20T10:34:56;7.03;;;4.88;;
826;SDS011;395;48.132;11.608;2023-01-20T10:37:24;5.50;;;4.70;;
826;SDS011;395;48.132;11.608;2023-01-20T10:39:55;6.38;;;5.28;;
826;SDS011;395;48.132;11.608;2023-01-20T10:42:33;5.97;;;5.10;;
826;SDS011;395;48.132;11.608;2023-01-20T10:44:59;7.40;;;5.03;;
826;SDS011;395;48.132;11.608;2023-01-20T10:47:34;5.93;;;5.00;;
826;SDS011;395;48.132;11.608;2023-01-20T10:58:20;6.47;;;4.78;;
826;SDS011;395;48.132;11.608;2023-01-20T11:00:47;6.60;;;4.72;;
826;SDS011;395;48.132;11.608;2023-01-20T11:03:15;6.90;;;5.20;;
826;SDS011;395;48.132;11.608;2023-01-20T11:05:43;5.45;;;4.88;;
826;SDS011;395;48.132;11.608;2023-01-20T11:08:21;5.65;;;4.70;;
826;SDS011;395;48.132;11.608;2023-01-20T11:10:50;5.70;;;4.50;;
826;SDS011;395;48.132;11.608;2023-01-20T11:13:19;4.55;;;3.75;;
826;SDS011;395;48.132;11.608;2023-01-20T11:15:45;5.67;;;4.43;;
826;SDS011;395;48.132;11.608;2023-01-20T11:23:50;6.18;;;4.72;;
826;SDS011;395;48.132;11.608;2023-01-20T11:42:08;3.80;;;3.07;;
826;SDS011;395;48.132;11.608;2023-01-20T11:52:37;4.20;;;3.80;;
826;SDS011;395;48.132;11.608;2023-01-20T11:57:35;5.43;;;4.80;;
826;SDS011;395;48.132;11.608;2023-01-20T12:00:02;7.07;;;4.93;;
826;SDS011;395;48.132;11.608;2023-01-20T12:02:55;5.90;;;5.15;;
826;SDS011;395;48.132;11.608;2023-01-20T12:05:45;5.75;;;5.10;;
826;SDS011;395;48.132;11.608;2023-01-20T12:11:16;9.85;;;6.47;;
826;SDS011;395;48.132;11.608;2023-01-20T12:14:00;6.75;;;5.32;;
826;SDS011;395;48.132;11.608;2023-01-20T12:19:43;8.70;;;6.55;;
826;SDS011;395;48.132;11.608;2023-01-20T12:22:20;6.63;;;5.65;;
826;SDS011;395;48.132;11.608;2023-01-20T12:25:11;7.70;;;5.90;;
826;SDS011;395;48.132;11.608;2023-01-20T12:28:00;7.35;;;6.28;;
826;SDS011;395;48.132;11.608;2023-01-20T12:30:50;6.97;;;5.45;;
826;SDS011;395;48.132;11.608;2023-01-20T12:33:24;5.82;;;5.22;;
826;SDS011;395;48.132;11.608;2023-01-20T12:44:30;10.27;;;7.18;;
826;SDS011;395;48.132;11.608;2023-01-20T12:55:01;9.57;;;7.68;;
826;SDS011;395;48.132;11.608;2023-01-20T12:57:57;11.85;;;8.38;;
826;SDS011;395;48.132;11.608;2023-01-20T13:00:33;10.57;;;9.13;;
826;SDS011;395;48.132;11.608;2023-01-20T13:03:32;11.05;;;9.50;;
826;SDS011;395;48.132;11.608;2023-01-20T13:06:29;10.85;;;8.95;;
826;SDS011;395;48.132;11.608;2023-01-20T13:17:24;15.52;;;12.27;;
826;SDS011;395;48.132;11.608;2023-01-20T13:20:13;12.55;;;10.27;;
826;SDS011;395;48.132;11.608;2023-01-20T13:22:51;14.73;;;11.98;;
826;SDS011;395;48.132;11.608;2023-01-20T13:25:19;13.88;;;11.85;;
826;SDS011;395;48.132;11.608;2023-01-20T13:27:45;14.05;;;11.85;;
826;SDS011;395;48.132;11.608;2023-01-20T13:33:16;15.52;;;11.63;;
826;SDS011;395;48.132;11.608;2023-01-20T13:35:59;13.88;;;10.80;;
826;SDS011;395;48.132;11.608;2023-01-20T13:38:36;15.50;;;12.63;;
826;SDS011;395;48.132;11.608;2023-01-20T13:41:03;14.40;;;11.55;;
826;SDS011;395;48.132;11.608;2023-01-20T13:48:35;15.30;;;12.17;;
826;SDS011;395;48.132;11.608;2023-01-20T13:53:41;16.27;;;11.88;;
826;SDS011;395;48.132;11.608;2023-01-20T13:56:26;14.30;;;12.40;;
826;SDS011;395;48.132;11.608;2023-01-20T13:58:59;15.10;;;11.57;;
826;SDS011;395;48.132;11.608;2023-01-20T14:01:25;14.60;;;11.73;;
826;SDS011;395;48.132;11.608;2023-01-20T14:04:02;14.85;;;11.70;;
826;SDS011;395;48.132;11.608;2023-01-20T14:06:28;18.17;;;11.52;;
826;SDS011;395;48.132;11.608;2023-01-20T14:08:56;14.55;;;11.98;;
826;SDS011;395;48.132;11.608;2023-01-20T14:11:24;17.52;;;12.23;;
826;SDS011;395;48.132;11.608;2023-01-20T14:16:17;16.33;;;12.80;;
826;SDS011;395;48.132;11.608;2023-01-20T14:18:44;16.65;;;12.85;;
826;SDS011;395;48.132;11.608;2023-01-20T14:21:17;19.27;;;13.60;;
826;SDS011;395;48.132;11.608;2023-01-20T14:23:48;15.13;;;12.05;;
826;SDS011;395;48.132;11.608;2023-01-20T14:26:30;13.85;;;10.65;;
826;SDS011;395;48.132;11.608;2023-01-20T14:28:57;16.80;;;12.20;;
826;SDS011;395;48.132;11.608;2023-01-20T14:33:56;15.45;;;12.82;;
826;SDS011;395;48.132;11.608;2023-01-20T14:36:25;16.33;;;12.45;;
826;SDS011;395;48.132;11.608;2023-01-20T14:38:55;17.40;;;13.40;;
826;SDS011;395;48.132;11.608;2023-01-20T14:41:23;15.65;;;13.32;;
826;SDS011;395;48.132;11.608;2023-01-20T14:43:49;16.20;;;12.80;;
826;SDS011;395;48.132;11.608;2023-01-20T14:46:15;16.67;;;11.73;;
826;SDS011;395;48.132;11.608;2023-01-20T14:48:41;16.10;;;12.50;;
826;SDS011;395;48.132;11.608;2023-01-20T14:51:08;18.73;;;13.38;;
826;SDS011;395;48.132;11.608;2023-01-20T14:53:34;17.57;;;12.83;;
826;SDS011;395;48.132;11.608;2023-01-20T14:58:31;20.98;;;14.68;;
826;SDS011;395;48.132;11.608;2023-01-20T15:01:02;19.88;;;13.48;;
826;SDS011;395;48.132;11.608;2023-01-20T15:03:30;18.20;;;13.65;;
826;SDS011;395;48.132;11.608;2023-01-20T15:13:38;19.88;;;13.20;;
826;SDS011;395;48.132;11.608;2023-01-20T15:18:37;16.17;;;12.10;;
826;SDS011;395;48.132;11.608;2023-01-20T15:21:36;21.10;;;13.57;;
826;SDS011;395;48.132;11.608;2023-01-20T15:24:04;17.75;;;14.13;;
826;SDS011;395;48.132;11.608;2023-01-20T15:26:36;20.17;;;13.60;;
826;SDS011;395;48.132;11.608;2023-01-20T15:29:17;18.20;;;12.95;;
826;SDS011;395;48.132;11.608;2023-01-20T15:31:58;19.02;;;13.30;;
826;SDS011;395;48.132;11.608;2023-01-20T15:34:26;18.63;;;13.70;;
826;SDS011;395;48.132;11.608;2023-01-20T15:36:53;18.77;;;13.60;;
826;SDS011;395;48.132;11.608;2023-01-20T15:39:21;21.38;;;15.25;;
826;SDS011;395;48.132;11.608;2023-01-20T15:41:50;20.65;;;14.85;;
826;SDS011;395;48.132;11.608;2023-01-20T15:44:18;19.40;;;14.07;;
826;SDS011;395;48.132;11.608;2023-01-20T15:46:48;18.17;;;14.68;;
826;SDS011;395;48.132;11.608;2023-01-20T15:49:14;18.70;;;13.07;;
826;SDS011;395;48.132;11.608;2023-01-20T15:51:40;23.92;;;15.27;;
826;SDS011;395;48.132;11.608;2023-01-20T15:54:07;20.38;;;13.60;;
826;SDS011;395;48.132;11.608;2023-01-20T15:56:35;21.25;;;14.07;;
826;SDS011;395;48.132;11.608;2023-01-20T15:59:12;22.83;;;15.05;;
826;SDS011;395;48.132;11.608;2023-01-20T16:01:40;19.63;;;14.70;;
826;SDS011;395;48.132;11.608;2023-01-20T16:04:06;21.47;;;14.80;;
826;SDS011;395;48.132;11.608;2023-01-20T16:06:32;19.03;;;13.80;;
826;SDS011;395;48.132;11.608;2023-01-20T16:09:02;22.23;;;14.88;;
826;SDS011;395;48.132;11.608;2023-01-20T16:11:39;24.27;;;15.68;;
826;SDS011;395;48.132;11.608;2023-01-20T16:14:06;22.30;;;15.10;;
826;SDS011;395;48.132;11.608;2023-01-20T16:16:32;23.93;;;15.50;;
826;SDS011;395;48.132;11.608;2023-01-20T16:18:57;18.50;;;14.37;;
826;SDS011;395;48.132;11.608;2023-01-20T16:21:23;21.27;;;15.40;;
826;SDS011;395;48.132;11.608;2023-01-20T16:23:49;21.97;;;16.30;;
826;SDS011;395;48.132;11.608;2023-01-20T16:26:21;17.93;;;13.40;;
826;SDS011;395;48.132;11.608;2023-01-20T16:28:52;19.83;;;13.43;;
826;SDS011;395;48.132;11.608;2023-01-20T16:31:19;17.92;;;12.85;;
826;SDS011;395;48.132;11.608;2023-01-20T16:33:46;18.23;;;13.82;;
826;SDS011;395;48.132;11.608;2023-01-20T16:36:13;20.73;;;13.93;;
826;SDS011;395;48.132;11.608;2023-01-20T16:38:42;20.35;;;13.48;;
826;SDS011;395;48.132;11.608;2023-01-20T16:41:24;19.05;;;13.35;;
826;SDS011;395;48.132;11.608;2023-01-20T16:43:52;20.27;;;14.25;;
826;SDS011;395;48.132;11.608;2023-01-20T16:46:29;19.95;;;12.18;;
826;SDS011;395;48.132;11.608;2023-01-20T16:48:56;19.88;;;14.23;;
826;SDS011;395;48.132;11.608;2023-01-20T16:51:24;17.23;;;12.52;;
826;SDS011;395;48.132;11.608;2023-01-20T16:53:51;17.92;;;13.60;;
826;SDS011;395;48.132;11.608;2023-01-20T16:56:19;18.92;;;13.38;;
826;SDS011;395;48.132;11.608;2023-01-20T16:58:49;19.17;;;13.20;;
826;SDS011;395;48.132;11.608;2023-01-20T17:01:15;18.90;;;13.73;;
826;SDS011;395;48.132;11.608;2023-01-20T17:03:46;17.10;;;13.35;;
826;SDS011;395;48.132;11.608;2023-01-20T17:06:16;18.27;;;12.73;;
826;SDS011;395;48.132;11.608;2023-01-20T17:08:43;18.98;;;13.75;;
826;SDS011;395;48.132;11.608;2023-01-20T17:11:10;17.50;;;13.27;;
826;SDS011;395;48.132;11.608;2023-01-20T17:13:44;19.75;;;13.57;;
826;SDS011;395;48.132;11.608;2023-01-20T17:16:10;16.97;;;12.80;;
826;SDS011;395;48.132;11.608;2023-01-20T17:18:35;21.80;;;12.50;;
826;SDS011;395;48.132;11.608;2023-01-20T17:21:04;17.23;;;13.03;;
826;SDS011;395;48.132;11.608;2023-01-20T17:23:31;21.80;;;14.63;;
826;SDS011;395;48.132;11.608;2023-01-20T17:25:57;20.40;;;13.95;;
826;SDS011;395;48.132;11.608;2023-01-20T17:28:25;19.23;;;13.35;;
826;SDS011;395;48.132;11.608;2023-01-20T17:30:50;18.83;;;13.00;;
826;SDS011;395;48.132;11.608;2023-01-20T17:33:16;19.60;;;13.17;;
826;SDS011;395;48.132;11.608;2023-01-20T17:35:42;21.00;;;12.17;;
826;SDS011;395;48.132;11.608;2023-01-20T17:38:07;17.03;;;12.27;;
826;SDS011;395;48.132;11.608;2023-01-20T17:40:34;18.75;;;13.38;;
826;SDS011;395;48.132;11.608;2023-01-20T17:43:00;20.90;;;13.80;;
826;SDS011;395;48.132;11.608;2023-01-20T17:45:26;20.30;;;13.73;;
826;SDS011;395;48.132;11.608;2023-01-20T17:47:54;16.60;;;12.50;;
826;SDS011;395;48.132;11.608;2023-01-20T17:50:20;19.17;;;14.83;;
826;SDS011;395;48.132;11.608;2023-01-20T17:52:46;20.23;;;14.20;;
826;SDS011;395;48.132;11.608;2023-01-20T17:55:11;18.77;;;14.10;;
826;SDS011;395;48.132;11.608;2023-01-20T17:57:37;20.37;;;14.57;;